Time;durP1;ratioP1;P1;durP2;ratioP2;P2;SDS_P1;SDS_P2;PMS_P1;PMS_P2;Temp;Humidity;BMP_temperature;BMP_pressure;BME280_temperature;BME280_humidity;BME280_pressure;Samples;Min_cycle;Max_cycle;Signal;HPM_P1;HPM_P2
2022/04/17 00:01:21;;;;;;;4.10;3.20;;;13.50;90.80;;;;;;5031335;28;20687;-36
2022/04/17 00:03:51;;;;;;;4.37;3.27;;;13.40;90.70;;;;;;5029181;28;20288;-36
2022/04/17 00:06:20;;;;;;;4.27;3.30;;;13.40;90.70;;;;;;5040148;28;20687;-36
2022/04/17 00:08:50;;;;;;;5.65;3.60;;;13.30;90.60;;;;;;5047449;28;20192;-36
2022/04/17 00:11:17;;;;;;;4.40;3.00;;;13.30;90.60;;;;;;5030529;28;20223;-36
2022/04/17 00:13:44;;;;;;;5.57;2.67;;;13.30;90.60;;;;;;5030702;28;20232;-37
2022/04/17 00:16:14;;;;;;;4.35;3.08;;;13.20;90.50;;;;;;5030401;28;20209;-37
2022/04/17 00:18:41;;;;;;;6.60;2.65;;;13.20;90.40;;;;;;5034372;28;20631;-37
2022/04/17 00:21:09;;;;;;;4.32;3.10;;;13.10;90.50;;;;;;5048113;28;20346;-37
2022/04/17 00:23:41;;;;;;;5.67;3.20;;;13.10;90.40;;;;;;5030379;28;20702;-38
2022/04/17 00:26:12;;;;;;;3.30;2.97;;;13.00;90.30;;;;;;5028807;28;20232;-37
2022/04/17 00:28:44;;;;;;;4.83;3.10;;;13.00;90.30;;;;;;5030185;28;20679;-38
2022/04/17 00:31:11;;;;;;;3.63;2.70;;;12.90;90.20;;;;;;5029842;28;20701;-37
2022/04/17 00:33:38;;;;;;;6.00;2.80;;;12.90;90.20;;;;;;5029529;28;20546;-38
2022/04/17 00:36:08;;;;;;;3.80;2.60;;;12.80;90.10;;;;;;5029601;28;20220;-38
2022/04/17 00:38:36;;;;;;;3.10;2.57;;;12.80;90.10;;;;;;5029749;28;20211;-37
2022/04/17 00:41:03;;;;;;;3.17;2.47;;;12.80;90.10;;;;;;5045971;28;20803;-37
2022/04/17 00:43:33;;;;;;;3.20;2.30;;;12.70;90.00;;;;;;5050021;28;20254;-37
2022/04/17 00:46:02;;;;;;;3.10;2.40;;;12.70;89.90;;;;;;5049781;28;20196;-37
2022/04/17 00:48:30;;;;;;;4.60;2.37;;;12.70;90.00;;;;;;5042848;28;20196;-37
2022/04/17 00:50:59;;;;;;;3.33;2.70;;;12.60;89.80;;;;;;5028828;28;20275;-37
2022/04/17 00:53:28;;;;;;;3.83;2.30;;;12.60;89.70;;;;;;5030031;28;20231;-37
2022/04/17 00:55:59;;;;;;;3.70;2.40;;;12.50;89.50;;;;;;5029672;28;20243;-35
2022/04/17 00:58:31;;;;;;;4.30;2.50;;;12.50;89.50;;;;;;5030828;28;20576;-36
2022/04/17 01:01:00;;;;;;;3.97;2.90;;;12.40;89.20;;;;;;5043691;28;20584;-36
2022/04/17 01:03:30;;;;;;;3.57;2.27;;;12.40;89.30;;;;;;5048304;28;20216;-35
2022/04/17 01:06:01;;;;;;;3.07;2.43;;;12.40;89.30;;;;;;5047787;28;20550;-37
2022/04/17 01:08:28;;;;;;;3.50;2.57;;;12.30;89.20;;;;;;5048691;28;20227;-37
2022/04/17 01:10:59;;;;;;;3.80;2.20;;;12.30;89.20;;;;;;5035333;28;20213;-37
2022/04/17 01:13:27;;;;;;;2.77;2.17;;;12.30;89.10;;;;;;5046517;28;20192;-37
2022/04/17 01:15:58;;;;;;;3.87;2.63;;;12.20;89.00;;;;;;5038256;28;20324;-36
2022/04/17 01:18:26;;;;;;;4.07;2.70;;;12.20;89.00;;;;;;5048652;28;20215;-36
2022/04/17 01:20:58;;;;;;;3.65;2.63;;;12.20;89.00;;;;;;5046024;28;20262;-36
2022/04/17 01:29:12;;;;;;;3.20;2.53;;;12.10;88.70;;;;;;5043110;28;20709;-35
2022/04/17 01:31:42;;;;;;;4.23;2.57;;;12.00;88.60;;;;;;5034841;28;20307;-36
2022/04/17 01:34:11;;;;;;;3.83;2.70;;;12.00;88.60;;;;;;5027347;28;20227;-35
2022/04/17 01:36:41;;;;;;;4.73;2.50;;;11.90;88.40;;;;;;5027838;28;20208;-35
2022/04/17 01:39:08;;;;;;;4.53;2.70;;;11.90;88.40;;;;;;5028911;28;20209;-35
2022/04/17 01:41:38;;;;;;;4.27;2.50;;;11.90;88.30;;;;;;5028706;28;20667;-36
2022/04/17 01:44:08;;;;;;;5.70;2.50;;;11.80;88.10;;;;;;5029412;28;20271;-34
2022/04/17 01:46:36;;;;;;;3.43;2.50;;;11.80;88.20;;;;;;5029451;28;20196;-37
2022/04/17 01:49:05;;;;;;;3.33;2.30;;;11.70;88.00;;;;;;5045189;28;20549;-37
2022/04/17 01:51:42;;;;;;;2.53;2.27;;;11.70;88.00;;;;;;5046930;28;20212;-37
2022/04/17 01:54:15;;;;;;;3.60;2.60;;;11.70;87.90;;;;;;5048733;28;20204;-37
2022/04/17 01:56:49;;;;;;;4.53;2.53;;;11.60;88.00;;;;;;5048653;28;20682;-37
2022/04/17 01:59:19;;;;;;;3.97;2.30;;;11.60;88.60;;;;;;5046793;28;20883;-40
2022/04/17 02:01:51;;;;;;;4.70;2.40;;;11.60;88.10;;;;;;5034803;28;20248;-37
2022/04/17 02:04:21;;;;;;;3.93;2.87;;;11.60;88.00;;;;;;5030355;28;20729;-46
2022/04/17 02:06:50;;;;;;;4.20;2.70;;;11.50;87.80;;;;;;5047667;28;20197;-37
2022/04/17 02:09:20;;;;;;;3.40;2.23;;;11.50;87.80;;;;;;5046872;28;20211;-39
2022/04/17 02:11:48;;;;;;;2.90;2.10;;;11.50;87.80;;;;;;5047016;28;20212;-37
2022/04/17 02:14:17;;;;;;;2.93;2.47;;;11.40;87.80;;;;;;5046684;28;20608;-36
2022/04/17 02:16:47;;;;;;;3.27;2.37;;;11.40;87.70;;;;;;5048241;28;20204;-36
2022/04/17 02:19:17;;;;;;;3.50;2.20;;;11.40;87.70;;;;;;5046491;28;20216;-37
2022/04/17 02:21:44;;;;;;;5.80;2.57;;;11.40;87.60;;;;;;5045489;28;20690;-37
2022/04/17 02:24:12;;;;;;;3.03;2.20;;;11.30;87.40;;;;;;5042729;28;20613;-37
2022/04/17 02:26:39;;;;;;;5.43;2.87;;;11.30;87.40;;;;;;5039959;28;20217;-36
2022/04/17 02:29:06;;;;;;;4.80;2.60;;;11.30;87.40;;;;;;5047789;28;20573;-37
2022/04/17 02:31:33;;;;;;;2.53;2.10;;;11.20;87.40;;;;;;5048419;28;20230;-37
2022/04/17 02:34:00;;;;;;;3.13;2.50;;;11.20;87.30;;;;;;5047242;28;20462;-36
2022/04/17 02:36:30;;;;;;;7.73;3.83;;;11.20;87.30;;;;;;5046690;28;20227;-37
2022/04/17 02:38:58;;;;;;;3.90;2.27;;;11.20;87.30;;;;;;5039571;28;20208;-37
2022/04/17 02:41:25;;;;;;;3.17;2.43;;;11.20;87.90;;;;;;5028341;28;20222;-34
2022/04/17 02:43:55;;;;;;;3.50;2.37;;;11.10;87.20;;;;;;5027533;28;20296;-34
2022/04/17 02:49:12;;;;;;;6.83;2.93;;;11.10;87.10;;;;;;5058630;28;20298;-34
2022/04/17 02:51:40;;;;;;;6.37;3.03;;;11.00;87.10;;;;;;5057262;28;20291;-34
2022/04/17 02:54:09;;;;;;;4.07;2.50;;;11.00;87.10;;;;;;5027262;28;20304;-34
2022/04/17 02:56:41;;;;;;;3.63;2.50;;;10.90;87.00;;;;;;5028421;28;20213;-34
2022/04/17 02:59:11;;;;;;;4.67;3.07;;;10.90;87.00;;;;;;5027908;28;20231;-34
2022/04/17 03:07:14;;;;;;;4.03;2.50;;;10.80;86.80;;;;;;5027177;28;20291;-34
2022/04/17 03:09:44;;;;;;;4.63;2.60;;;10.70;86.70;;;;;;5038665;28;20637;-34
2022/04/17 03:12:15;;;;;;;4.70;2.93;;;10.60;86.60;;;;;;5046060;28;20211;-34
2022/04/17 03:14:46;;;;;;;3.77;2.90;;;10.60;86.70;;;;;;5027326;28;20201;-34
2022/04/17 03:17:14;;;;;;;3.53;2.70;;;10.50;86.60;;;;;;5027785;28;20556;-35
2022/04/17 03:19:41;;;;;;;5.87;2.80;;;10.50;86.60;;;;;;5027019;28;20209;-34
2022/04/17 03:22:08;;;;;;;5.10;3.03;;;10.40;86.50;;;;;;5039916;28;20597;-34
2022/04/17 03:24:36;;;;;;;3.53;2.40;;;10.40;86.50;;;;;;5047094;28;20247;-34
2022/04/17 03:27:03;;;;;;;3.50;2.70;;;10.30;86.50;;;;;;5045152;28;20250;-35
2022/04/17 03:29:33;;;;;;;3.37;2.80;;;10.30;86.40;;;;;;5043316;28;20232;-35
2022/04/17 03:32:00;;;;;;;3.17;2.30;;;10.20;86.40;;;;;;5027705;28;20201;-34
2022/04/17 03:34:29;;;;;;;3.63;2.80;;;10.20;86.40;;;;;;5032031;28;20247;-34
2022/04/17 03:36:58;;;;;;;3.33;2.50;;;10.10;86.30;;;;;;5039931;28;20606;-36
2022/04/17 03:39:26;;;;;;;3.13;2.53;;;10.10;86.30;;;;;;5050646;28;20219;-34
2022/04/17 03:41:53;;;;;;;3.73;2.80;;;10.00;86.20;;;;;;5050971;28;20593;-34
2022/04/17 03:44:23;;;;;;;4.70;2.67;;;10.00;86.20;;;;;;5030997;28;20209;-35
2022/04/17 03:46:53;;;;;;;4.67;2.90;;;10.00;86.20;;;;;;5037362;28;20200;-35
2022/04/17 03:49:25;;;;;;;3.60;2.70;;;9.90;87.30;;;;;;5067965;28;20192;-36
2022/04/17 03:51:58;;;;;;;4.07;2.80;;;9.90;87.30;;;;;;5055785;28;20632;-36
2022/04/17 03:54:26;;;;;;;4.77;3.00;;;9.90;87.40;;;;;;5030633;28;20332;-36
2022/04/17 03:56:54;;;;;;;4.03;2.57;;;9.80;87.20;;;;;;5030990;28;20209;-37
2022/04/17 03:59:22;;;;;;;2.97;2.60;;;9.80;87.20;;;;;;5031227;28;20299;-34
2022/04/17 04:01:49;;;;;;;3.97;2.77;;;9.70;87.10;;;;;;5030801;28;20213;-34
2022/04/17 04:04:23;;;;;;;5.20;3.00;;;9.70;87.10;;;;;;5040450;28;20219;-34
2022/04/17 04:06:51;;;;;;;2.83;2.30;;;9.70;87.10;;;;;;5049931;28;20195;-35
2022/04/17 04:09:20;;;;;;;4.00;2.70;;;9.70;87.10;;;;;;5048963;28;20215;-34
2022/04/17 04:11:55;;;;;;;5.67;2.93;;;9.60;87.10;;;;;;5049209;28;20765;-34
2022/04/17 04:14:25;;;;;;;3.03;2.40;;;9.60;87.00;;;;;;5050332;28;20738;-35
2022/04/17 04:16:53;;;;;;;2.83;2.50;;;9.60;87.70;;;;;;5049378;28;20211;-35
2022/04/17 04:19:25;;;;;;;3.90;2.63;;;9.60;87.00;;;;;;5049759;28;20204;-35
2022/04/17 04:21:54;;;;;;;4.20;2.83;;;9.50;86.90;;;;;;5047636;28;20625;-35
2022/04/17 04:24:24;;;;;;;5.80;2.80;;;9.50;86.90;;;;;;5050683;28;20510;-35
2022/04/17 04:29:40;;;;;;;5.20;3.00;;;9.40;87.00;;;;;;5048590;28;20212;-34
2022/04/17 04:32:08;;;;;;;4.17;3.33;;;9.30;87.00;;;;;;5050110;28;20202;-35
2022/04/17 04:34:35;;;;;;;5.17;2.90;;;9.30;87.00;;;;;;5048751;28;20674;-35
2022/04/17 04:37:05;;;;;;;4.63;3.00;;;9.20;87.00;;;;;;5049152;28;20197;-35
2022/04/17 04:39:32;;;;;;;5.23;3.10;;;9.20;87.00;;;;;;5029955;28;20228;-35
2022/04/17 04:42:03;;;;;;;4.63;2.70;;;9.10;86.90;;;;;;5029326;28;20204;-35
2022/04/17 04:44:30;;;;;;;4.53;2.93;;;9.10;87.00;;;;;;5029457;28;20201;-35
2022/04/17 04:46:57;;;;;;;3.70;2.50;;;9.10;86.90;;;;;;5029775;28;20205;-35
2022/04/17 04:49:30;;;;;;;5.23;3.00;;;9.00;86.90;;;;;;5065323;28;20834;-35
2022/04/17 04:52:01;;;;;;;5.43;3.07;;;9.00;86.90;;;;;;5044718;28;20224;-35
2022/04/17 04:54:29;;;;;;;4.87;2.77;;;9.00;86.90;;;;;;5048342;28;20278;-35
2022/04/17 04:56:57;;;;;;;3.43;2.43;;;8.90;86.80;;;;;;5049578;28;20223;-35
2022/04/17 04:59:30;;;;;;;4.27;2.80;;;8.90;86.90;;;;;;5049440;28;20255;-35
2022/04/17 05:01:59;;;;;;;4.50;2.80;;;8.90;87.00;;;;;;5049565;28;20192;-35
2022/04/17 05:04:27;;;;;;;3.73;3.07;;;8.90;87.00;;;;;;5049347;28;20204;-35
2022/04/17 05:06:57;;;;;;;5.17;3.10;;;8.80;87.00;;;;;;5048195;28;20204;-34
2022/04/17 05:09:28;;;;;;;4.17;2.90;;;8.80;86.90;;;;;;5032974;28;20675;-35
2022/04/17 05:11:55;;;;;;;5.80;3.07;;;8.80;87.00;;;;;;5029996;28;20208;-35
2022/04/17 05:14:22;;;;;;;4.90;2.73;;;8.80;87.20;;;;;;5028182;28;20312;-35
2022/04/17 05:16:49;;;;;;;4.10;2.63;;;8.80;87.20;;;;;;5027913;28;20203;-35
2022/04/17 05:19:24;;;;;;;5.87;2.97;;;8.70;87.10;;;;;;5027324;28;20680;-35
2022/04/17 05:21:58;;;;;;;5.43;3.10;;;8.70;87.20;;;;;;5028258;28;20664;-35
2022/04/17 05:24:30;;;;;;;5.10;3.00;;;8.70;87.20;;;;;;5028531;28;20216;-36
2022/04/17 05:27:00;;;;;;;4.70;2.90;;;8.70;87.30;;;;;;5029111;28;20629;-36
2022/04/17 05:29:30;;;;;;;3.20;2.90;;;8.70;87.30;;;;;;5039566;28;20299;-36
2022/04/17 05:31:57;;;;;;;3.40;2.83;;;8.70;87.40;;;;;;5047344;28;20535;-36
2022/04/17 05:34:30;;;;;;;4.07;3.00;;;8.70;87.40;;;;;;5031719;28;20200;-35
2022/04/17 05:36:59;;;;;;;4.20;2.73;;;8.70;87.40;;;;;;5047938;28;20209;-36
2022/04/17 05:39:27;;;;;;;3.30;2.60;;;8.70;87.50;;;;;;5047577;28;20193;-35
2022/04/17 05:41:54;;;;;;;3.77;2.73;;;8.70;87.40;;;;;;5047735;28;20254;-36
2022/04/17 05:44:26;;;;;;;3.30;2.77;;;8.70;88.10;;;;;;5048538;28;20224;-36
2022/04/17 05:46:56;;;;;;;4.30;2.80;;;8.80;87.50;;;;;;5037890;28;20196;-36
2022/04/17 05:49:25;;;;;;;3.33;2.47;;;8.80;88.20;;;;;;5051830;28;20244;-35
2022/04/17 05:51:55;;;;;;;3.43;2.47;;;8.80;87.40;;;;;;5032805;28;20217;-35
2022/04/17 05:54:24;;;;;;;3.90;2.50;;;8.80;87.40;;;;;;5028450;28;20299;-36
2022/04/17 05:56:53;;;;;;;3.97;2.60;;;8.80;87.40;;;;;;5027285;28;20288;-35
2022/04/17 05:59:22;;;;;;;2.60;2.30;;;8.90;87.50;;;;;;5029340;28;20638;-36
2022/04/17 06:01:49;;;;;;;3.80;2.33;;;8.90;87.50;;;;;;5026931;28;20291;-36
2022/04/17 06:04:19;;;;;;;3.93;2.60;;;8.90;87.50;;;;;;5046486;28;20764;-36
2022/04/17 06:06:48;;;;;;;4.77;2.73;;;8.90;87.60;;;;;;5047383;28;20568;-36
2022/04/17 06:09:18;;;;;;;5.43;2.63;;;9.00;87.60;;;;;;5048411;28;20281;-34
2022/04/17 06:11:45;;;;;;;3.53;2.63;;;9.00;87.70;;;;;;5047942;28;20300;-34
2022/04/17 06:14:15;;;;;;;2.37;2.17;;;9.00;87.70;;;;;;5046903;28;20204;-34
2022/04/17 06:16:47;;;;;;;3.97;2.83;;;9.00;87.70;;;;;;5047293;28;20730;-34
2022/04/17 06:19:17;;;;;;;8.10;3.30;;;9.00;87.80;;;;;;5045394;28;20203;-34
2022/04/17 06:21:44;;;;;;;2.80;2.50;;;9.10;87.90;;;;;;5027351;28;20274;-35
2022/04/17 06:24:14;;;;;;;4.00;2.70;;;9.10;87.90;;;;;;5046520;28;20243;-34
2022/04/17 06:26:48;;;;;;;3.17;2.20;;;9.20;88.00;;;;;;5047711;28;20251;-34
2022/04/17 06:29:18;;;;;;;3.47;2.20;;;9.20;88.10;;;;;;5048116;28;20826;-34
2022/04/17 06:31:46;;;;;;;3.80;2.70;;;9.30;88.20;;;;;;5047730;28;20304;-34
2022/04/17 06:34:15;;;;;;;3.20;2.57;;;9.30;88.10;;;;;;5046593;28;20220;-35
2022/04/17 06:36:42;;;;;;;3.70;2.40;;;9.30;88.10;;;;;;5041431;28;20288;-35
2022/04/17 06:39:12;;;;;;;3.60;2.63;;;9.40;88.30;;;;;;5027924;28;20218;-35
2022/04/17 06:41:40;;;;;;;4.10;2.63;;;9.50;88.40;;;;;;5027506;28;20229;-35
2022/04/17 06:44:07;;;;;;;3.27;2.60;;;9.50;88.40;;;;;;5027523;28;20268;-35
2022/04/17 06:46:37;;;;;;;3.60;2.50;;;9.60;88.50;;;;;;5027372;28;20292;-35
2022/04/17 06:49:06;;;;;;;4.50;2.87;;;9.60;88.50;;;;;;5057405;28;20294;-35
2022/04/17 06:51:34;;;;;;;3.33;2.27;;;9.70;88.70;;;;;;5044575;28;20221;-35
2022/04/17 06:54:01;;;;;;;2.87;2.10;;;9.80;88.80;;;;;;5037993;28;20266;-35
2022/04/17 06:56:28;;;;;;;4.17;2.33;;;9.80;88.80;;;;;;5047513;28;20642;-34
2022/04/17 06:58:58;;;;;;;2.57;2.20;;;9.90;88.80;;;;;;5047521;28;20648;-35
2022/04/17 07:01:28;;;;;;;2.20;2.00;;;9.90;88.80;;;;;;5045722;28;20277;-34
2022/04/17 07:03:55;;;;;;;3.00;1.77;;;10.00;87.80;;;;;;5047234;28;20451;-35
2022/04/17 07:06:22;;;;;;;2.67;1.80;;;10.10;87.90;;;;;;5044893;28;20204;-35
2022/04/17 07:08:57;;;;;;;2.70;1.97;;;10.20;88.00;;;;;;5026713;28;20274;-35
2022/04/17 07:11:25;;;;;;;2.40;1.90;;;10.20;88.00;;;;;;5038617;28;20750;-35
2022/04/17 07:13:56;;;;;;;2.77;1.90;;;10.30;88.10;;;;;;5046997;28;20200;-35
2022/04/17 07:16:25;;;;;;;2.37;1.90;;;10.40;88.30;;;;;;5047541;28;20224;-35
2022/04/17 07:18:55;;;;;;;2.20;1.83;;;10.50;88.40;;;;;;5045164;28;20224;-35
2022/04/17 07:21:22;;;;;;;2.53;1.70;;;10.50;88.40;;;;;;5027264;28;20220;-34
2022/04/17 07:23:54;;;;;;;2.63;1.67;;;10.60;88.50;;;;;;5027070;28;20327;-35
2022/04/17 07:26:21;;;;;;;2.20;1.80;;;10.60;88.50;;;;;;5027269;28;20263;-34
2022/04/17 07:28:50;;;;;;;1.77;1.53;;;10.80;88.70;;;;;;5041566;28;20754;-35
2022/04/17 07:31:17;;;;;;;3.47;2.00;;;10.80;88.80;;;;;;5047182;28;20203;-34
2022/04/17 07:33:47;;;;;;;3.90;1.93;;;10.80;88.50;;;;;;5046500;28;20212;-35
2022/04/17 07:36:14;;;;;;;2.27;2.03;;;10.90;88.70;;;;;;5047260;28;20290;-34
2022/04/17 07:38:44;;;;;;;4.50;1.90;;;11.00;88.80;;;;;;5046586;28;20250;-34
2022/04/17 07:41:11;;;;;;;3.10;2.10;;;11.00;88.80;;;;;;5046262;28;20212;-35
2022/04/17 07:43:38;;;;;;;2.10;1.87;;;11.10;88.90;;;;;;5046617;28;20318;-35
2022/04/17 07:46:08;;;;;;;3.03;2.00;;;11.20;89.00;;;;;;5030085;28;20747;-35
2022/04/17 07:48:37;;;;;;;2.40;1.77;;;11.20;89.00;;;;;;5049021;28;20195;-34
2022/04/17 07:51:08;;;;;;;4.23;1.90;;;11.30;89.20;;;;;;5026620;28;20299;-35
2022/04/17 07:53:35;;;;;;;2.03;1.83;;;11.30;89.20;;;;;;5024759;28;20244;-35
2022/04/17 07:56:05;;;;;;;2.10;1.90;;;11.40;89.40;;;;;;5026820;28;20260;-34
2022/04/17 07:58:35;;;;;;;2.40;1.77;;;11.50;89.50;;;;;;5033821;28;20258;-34
2022/04/17 08:01:11;;;;;;;3.00;1.97;;;11.50;89.50;;;;;;5033667;28;20205;-34
2022/04/17 08:06:16;;;;;;;2.00;1.80;;;11.60;89.70;;;;;;5026241;28;20675;-34
2022/04/17 08:08:44;;;;;;;2.93;1.97;;;11.70;89.90;;;;;;5026164;28;20263;-34
2022/04/17 08:11:12;;;;;;;2.80;2.47;;;11.70;89.90;;;;;;5025393;28;20213;-34
2022/04/17 08:13:42;;;;;;;3.43;2.23;;;11.80;89.70;;;;;;5026692;28;20200;-34
2022/04/17 08:16:14;;;;;;;2.50;2.13;;;11.90;90.00;;;;;;5043666;28;20219;-34
2022/04/17 08:18:43;;;;;;;2.37;2.17;;;11.90;90.00;;;;;;5040260;28;20620;-34
2022/04/17 08:21:16;;;;;;;2.50;2.17;;;12.00;90.10;;;;;;5029980;28;20286;-34
2022/04/17 08:23:46;;;;;;;3.77;2.40;;;12.00;90.10;;;;;;5029582;28;20600;-34
2022/04/17 08:26:18;;;;;;;2.80;2.00;;;12.10;90.10;;;;;;5028651;28;20303;-35
2022/04/17 08:28:45;;;;;;;3.30;2.20;;;12.20;90.20;;;;;;5030142;28;20213;-34
2022/04/17 08:31:12;;;;;;;3.57;2.23;;;12.20;90.20;;;;;;5030528;28;20201;-35
2022/04/17 08:33:41;;;;;;;4.30;2.30;;;12.30;90.60;;;;;;5029510;28;20197;-35
2022/04/17 08:36:09;;;;;;;2.57;2.37;;;12.30;90.20;;;;;;5037143;28;20220;-35
2022/04/17 08:38:36;;;;;;;3.67;2.40;;;12.40;90.20;;;;;;5048146;28;20210;-34
2022/04/17 08:41:05;;;;;;;5.27;2.60;;;12.40;90.30;;;;;;5050105;28;20196;-35
2022/04/17 08:43:33;;;;;;;2.90;2.57;;;12.50;90.40;;;;;;5047944;28;20548;-34
2022/04/17 08:46:03;;;;;;;3.67;2.70;;;12.60;90.40;;;;;;5050000;28;20236;-34
2022/04/17 08:48:35;;;;;;;3.00;2.20;;;12.60;90.50;;;;;;5053455;28;20283;-34
2022/04/17 08:51:06;;;;;;;3.93;2.57;;;12.60;90.50;;;;;;5027871;28;20288;-34
2022/04/17 08:53:38;;;;;;;3.97;2.70;;;12.70;90.60;;;;;;5044325;28;20204;-34
2022/04/17 08:56:10;;;;;;;3.43;2.50;;;12.80;90.50;;;;;;5049528;28;20236;-36
2022/04/17 08:58:40;;;;;;;3.00;2.27;;;12.80;90.60;;;;;;5050025;28;20625;-35
2022/04/17 09:01:13;;;;;;;2.60;2.40;;;12.80;90.60;;;;;;5040380;28;20682;-35
2022/04/17 09:03:40;;;;;;;2.67;2.47;;;12.90;90.60;;;;;;5029986;28;20316;-34
2022/04/17 09:06:08;;;;;;;2.73;2.40;;;12.90;90.70;;;;;;5048090;28;20211;-35
2022/04/17 09:08:58;;;;;;;2.53;2.33;;;13.00;90.70;;;;;;5039166;28;20683;-34
2022/04/17 09:11:28;;;;;;;2.80;2.60;;;13.10;90.80;;;;;;5048964;28;20697;-35
2022/04/17 09:14:01;;;;;;;3.90;2.97;;;13.10;90.60;;;;;;5047662;28;20288;-35
2022/04/17 09:16:38;;;;;;;3.25;2.50;;;13.20;90.80;;;;;;5047934;28;20682;-35
2022/04/17 09:19:17;;;;;;;4.87;2.40;;;13.20;90.80;;;;;;5046539;28;20265;-35
2022/04/17 09:21:44;;;;;;;2.63;2.43;;;13.30;90.70;;;;;;5047768;28;20203;-35
2022/04/17 09:24:19;;;;;;;3.90;2.57;;;13.30;90.80;;;;;;5029565;28;20331;-36
2022/04/17 09:26:57;;;;;;;3.27;2.40;;;13.40;90.80;;;;;;5034746;28;20736;-37
2022/04/17 09:29:28;;;;;;;6.07;2.00;;;13.50;90.90;;;;;;5048885;28;20629;-37
2022/04/17 09:31:59;;;;;;;9.85;2.47;;;13.50;91.00;;;;;;5047090;28;20206;-37
2022/04/17 09:34:52;;;;;;;4.53;2.27;;;13.50;91.00;;;;;;5048287;28;20216;-37
2022/04/17 09:37:24;;;;;;;3.00;2.70;;;13.60;91.00;;;;;;5048600;28;20204;-37
2022/04/17 09:39:52;;;;;;;3.17;2.87;;;13.60;91.00;;;;;;5047918;28;20235;-37
2022/04/17 09:42:24;;;;;;;4.07;2.80;;;13.70;90.80;;;;;;5048728;28;20216;-37
2022/04/17 09:44:54;;;;;;;4.30;3.07;;;13.70;90.90;;;;;;5033225;28;20271;-37
2022/04/17 09:47:33;;;;;;;3.10;2.80;;;13.80;91.10;;;;;;5031096;28;20197;-37
2022/04/17 09:50:08;;;;;;;2.90;2.60;;;13.80;91.00;;;;;;5063626;28;20213;-37
2022/04/17 09:52:49;;;;;;;4.73;3.23;;;13.90;91.00;;;;;;5036585;28;20232;-37
2022/04/17 09:55:26;;;;;;;2.83;2.63;;;13.90;90.90;;;;;;5028016;28;20406;-37
2022/04/17 09:58:00;;;;;;;2.95;2.65;;;14.00;91.20;;;;;;5041503;28;20240;-37
2022/04/17 10:00:45;;;;;;;3.77;2.90;;;14.00;91.20;;;;;;5044315;28;20645;-37
2022/04/17 10:03:15;;;;;;;3.60;3.03;;;14.10;91.30;;;;;;5026764;28;20201;-37
2022/04/17 10:05:47;;;;;;;2.90;2.58;;;14.10;91.40;;;;;;5027088;28;20359;-37
2022/04/17 10:08:26;;;;;;;3.63;2.50;;;14.20;91.40;;;;;;5027798;28;20299;-37
2022/04/17 10:10:53;;;;;;;4.13;2.72;;;14.30;91.50;;;;;;5028533;28;20200;-37
2022/04/17 10:13:22;;;;;;;3.20;2.90;;;14.30;91.40;;;;;;5029376;28;20193;-37
2022/04/17 10:15:54;;;;;;;3.20;2.67;;;14.30;91.50;;;;;;5040735;28;20345;-37
2022/04/17 10:18:27;;;;;;;3.22;2.80;;;14.40;91.50;;;;;;5032288;28;20205;-37
2022/04/17 10:20:56;;;;;;;2.80;2.60;;;14.50;91.60;;;;;;5027096;28;20300;-37
2022/04/17 10:23:29;;;;;;;3.90;3.33;;;14.50;91.50;;;;;;5040375;28;20238;-36
2022/04/17 10:25:59;;;;;;;4.50;3.10;;;14.60;91.20;;;;;;5047619;28;20200;-37
2022/04/17 10:28:33;;;;;;;3.47;3.17;;;14.60;91.50;;;;;;5048085;28;20200;-37
2022/04/17 10:31:24;;;;;;;3.47;2.90;;;14.70;91.60;;;;;;5038978;28;20197;-37
2022/04/17 10:34:19;;;;;;;3.65;3.03;;;14.70;91.70;;;;;;5027264;28;20260;-37
2022/04/17 10:37:07;;;;;;;3.70;3.15;;;14.80;91.80;;;;;;5027054;28;20204;-37
2022/04/17 10:39:47;;;;;;;4.13;3.23;;;14.90;91.80;;;;;;5027874;28;20208;-37
2022/04/17 10:42:19;;;;;;;5.82;3.70;;;14.90;91.60;;;;;;5027161;28;20196;-37
2022/04/17 10:45:05;;;;;;;3.65;3.30;;;15.00;91.50;;;;;;5027420;28;20705;-37
2022/04/17 10:47:35;;;;;;;3.47;2.90;;;15.00;91.70;;;;;;5033696;28;20192;-37
2022/04/17 10:50:09;;;;;;;3.13;2.70;;;15.10;91.90;;;;;;5060229;28;20213;-37
2022/04/17 10:52:37;;;;;;;4.13;3.38;;;15.10;91.90;;;;;;5027977;28;20295;-37
2022/04/17 10:55:11;;;;;;;4.20;3.50;;;15.20;91.70;;;;;;5039740;28;20247;-36
2022/04/17 10:57:45;;;;;;;3.60;3.30;;;15.30;91.90;;;;;;5047260;28;20558;-37
2022/04/17 11:00:32;;;;;;;4.60;3.67;;;15.30;91.80;;;;;;5047092;28;20231;-37
2022/04/17 11:03:22;;;;;;;4.18;3.47;;;15.30;91.60;;;;;;5036105;28;20209;-36
2022/04/17 11:06:17;;;;;;;3.40;3.00;;;15.40;91.80;;;;;;5026897;28;20683;-34
2022/04/17 11:08:56;;;;;;;3.53;3.22;;;15.40;91.90;;;;;;5031095;28;20210;-34
2022/04/17 11:11:37;;;;;;;3.67;2.95;;;15.50;91.50;;;;;;5047659;28;20354;-34
2022/04/17 11:14:11;;;;;;;4.05;3.65;;;15.60;91.80;;;;;;5047266;28;20196;-34
2022/04/17 11:16:56;;;;;;;3.85;3.13;;;15.60;91.90;;;;;;5045670;28;20250;-34
2022/04/17 11:19:36;;;;;;;6.13;3.42;;;15.70;92.00;;;;;;5045330;28;20277;-34
2022/04/17 11:22:12;;;;;;;3.90;3.20;;;15.70;92.00;;;;;;5045310;28;20199;-34
2022/04/17 11:24:57;;;;;;;3.47;2.75;;;15.80;92.10;;;;;;5038300;28;20216;-34
2022/04/17 11:27:48;;;;;;;3.63;3.33;;;15.90;92.20;;;;;;5045015;28;20709;-34
2022/04/17 11:30:38;;;;;;;4.95;3.75;;;16.00;92.30;;;;;;5046953;28;20596;-37
2022/04/17 11:33:07;;;;;;;5.93;4.05;;;16.00;91.80;;;;;;5047112;28;20228;-37
2022/04/17 11:35:35;;;;;;;4.65;3.45;;;16.00;91.90;;;;;;5046031;28;20259;-37
2022/04/17 11:38:06;;;;;;;5.70;3.60;;;16.10;92.20;;;;;;5046827;28;20204;-37
2022/04/17 11:40:37;;;;;;;3.67;3.25;;;16.10;92.10;;;;;;5045234;28;20235;-37
2022/04/17 11:43:14;;;;;;;3.85;3.40;;;16.20;92.30;;;;;;5038183;28;20640;-37
2022/04/17 11:45:43;;;;;;;5.32;3.00;;;16.30;92.40;;;;;;5025563;28;20252;-37
2022/04/17 11:48:16;;;;;;;3.97;3.00;;;16.40;92.50;;;;;;5042477;28;20670;-37
2022/04/17 11:50:51;;;;;;;3.30;2.97;;;16.40;92.50;;;;;;5048545;28;20215;-37
2022/04/17 11:53:21;;;;;;;4.68;3.58;;;16.50;92.50;;;;;;5026186;28;20739;-37
2022/04/17 11:55:51;;;;;;;3.55;3.20;;;16.60;92.40;;;;;;5028916;28;20729;-37
2022/04/17 11:58:26;;;;;;;3.40;3.03;;;16.60;92.50;;;;;;5030558;28;20267;-37
2022/04/17 12:01:08;;;;;;;3.45;2.53;;;16.70;92.40;;;;;;5029435;28;20239;-37
2022/04/17 12:03:38;;;;;;;5.47;3.22;;;16.70;92.40;;;;;;5028708;28;20205;-37
2022/04/17 12:06:07;;;;;;;3.50;3.20;;;16.80;92.60;;;;;;5030291;28;20229;-37
2022/04/17 12:08:41;;;;;;;3.40;3.10;;;16.80;92.60;;;;;;5030120;28;20213;-37
2022/04/17 12:11:10;;;;;;;3.28;2.97;;;16.90;92.70;;;;;;5029037;28;20244;-37
2022/04/17 12:13:37;;;;;;;3.28;2.70;;;17.00;92.80;;;;;;5042628;28;20224;-37
2022/04/17 12:16:06;;;;;;;4.10;3.03;;;17.00;92.80;;;;;;5049369;28;20282;-37
2022/04/17 12:18:34;;;;;;;3.25;2.90;;;17.10;92.80;;;;;;5030120;28;20223;-37
2022/04/17 12:21:05;;;;;;;3.28;2.60;;;17.20;92.80;;;;;;5029613;28;20205;-37
2022/04/17 12:23:33;;;;;;;3.42;3.00;;;17.20;92.90;;;;;;5029540;28;20224;-37
2022/04/17 12:26:05;;;;;;;2.90;2.63;;;17.20;92.70;;;;;;5030185;28;20247;-37
2022/04/17 12:28:32;;;;;;;2.80;2.55;;;17.30;92.60;;;;;;5030765;28;20331;-38
2022/04/17 12:31:00;;;;;;;5.60;2.72;;;17.40;92.90;;;;;;5043338;28;20192;-37
2022/04/17 12:33:31;;;;;;;4.82;2.13;;;17.40;92.80;;;;;;5044598;28;20197;-38
2022/04/17 12:36:15;;;;;;;2.80;2.55;;;17.50;93.00;;;;;;5029078;28;20614;-38
2022/04/17 12:38:55;;;;;;;4.15;2.88;;;17.60;93.00;;;;;;5027966;28;20209;-34
2022/04/17 12:41:26;;;;;;;3.83;3.15;;;17.60;93.00;;;;;;5029734;28;20854;-34
2022/04/17 12:43:54;;;;;;;2.90;2.60;;;17.70;93.00;;;;;;5029613;28;20223;-34
2022/04/17 12:46:32;;;;;;;4.70;2.90;;;17.70;93.10;;;;;;5029031;28;20204;-34
2022/04/17 12:49:10;;;;;;;5.65;3.58;;;17.70;93.00;;;;;;5058099;28;20199;-34
2022/04/17 12:51:52;;;;;;;3.42;2.80;;;17.80;92.80;;;;;;5036586;28;20208;-34
2022/04/17 12:54:25;;;;;;;2.97;2.45;;;17.90;93.00;;;;;;5029582;28;20242;-34
2022/04/17 12:57:06;;;;;;;3.75;2.90;;;17.90;92.70;;;;;;5027985;28;20212;-37
2022/04/17 12:59:47;;;;;;;3.78;2.50;;;18.00;92.90;;;;;;5028246;28;20221;-37
2022/04/17 13:02:27;;;;;;;4.03;2.80;;;18.00;92.70;;;;;;5029682;28;20628;-37
2022/04/17 13:05:01;;;;;;;3.00;2.70;;;18.10;92.70;;;;;;5028538;28;20302;-37
2022/04/17 13:07:40;;;;;;;3.95;2.90;;;18.10;92.90;;;;;;5032161;28;20870;-37
2022/04/17 13:10:08;;;;;;;3.53;2.85;;;18.20;92.00;;;;;;5049254;28;20212;-37
2022/04/17 13:12:43;;;;;;;3.78;2.60;;;18.20;92.70;;;;;;5049255;28;20295;-37
2022/04/17 13:15:15;;;;;;;2.75;2.50;;;18.30;92.80;;;;;;5049378;28;20258;-38
2022/04/17 13:17:51;;;;;;;2.97;2.33;;;18.30;92.80;;;;;;5048917;28;20220;-37
2022/04/17 13:20:23;;;;;;;2.42;1.92;;;18.30;92.90;;;;;;5047288;28;20199;-38
2022/04/17 13:22:55;;;;;;;3.25;2.53;;;18.40;93.00;;;;;;5048348;28;20204;-37
2022/04/17 13:25:25;;;;;;;3.17;2.60;;;18.50;93.10;;;;;;5036172;28;20746;-37
2022/04/17 13:27:57;;;;;;;3.63;2.80;;;18.50;92.80;;;;;;5028765;28;20240;-37
2022/04/17 13:30:27;;;;;;;2.60;2.40;;;18.50;92.90;;;;;;5032939;28;20195;-37